Time;durP1;ratioP1;P1;durP2;ratioP2;P2;SDS_P1;SDS_P2;PMS_P1;PMS_P2;Temp;Humidity;BMP_temperature;BMP_pressure;BME280_temperature;BME280_humidity;BME280_pressure;Samples;Min_cycle;Max_cycle;Signal;HPM_P1;HPM_P2
2023/01/13 00:01:31;;;;;;;24.60;22.20;;;;;;;2.57;85.72;97670.55;108139;1283;22612;-87
2023/01/13 00:04:00;;;;;;;30.80;27.90;;;;;;;2.66;85.73;97669.58;107458;1283;24295;-85
2023/01/13 00:06:28;;;;;;;27.60;25.10;;;;;;;2.72;85.34;97664.03;106858;1283;25285;-87
2023/01/13 00:08:56;;;;;;;21.40;19.20;;;;;;;2.78;85.82;97665.20;106849;1276;22564;-86
2023/01/13 00:12:18;;;;;;;22.40;20.20;;;;;;;2.82;85.87;97663.48;106832;1282;22820;-86
2023/01/13 00:14:48;;;;;;;21.60;19.30;;;;;;;2.83;85.56;97658.65;106829;1282;25324;-87
2023/01/13 00:17:16;;;;;;;19.60;17.70;;;;;;;2.85;86.02;97656.05;106607;1283;25352;-87
2023/01/13 00:19:45;;;;;;;21.30;19.40;;;;;;;2.89;86.13;97657.96;106710;1283;24222;-88
2023/01/13 00:22:13;;;;;;;23.80;21.60;;;;;;;2.96;86.01;97656.40;106710;1283;24080;-84
2023/01/13 00:24:42;;;;;;;22.00;20.00;;;;;;;3.05;86.02;97651.95;106589;1283;22551;-87
2023/01/13 00:27:10;;;;;;;24.30;22.00;;;;;;;3.14;86.34;97650.67;106760;1283;24071;-85
2023/01/13 00:29:38;;;;;;;25.00;22.70;;;;;;;3.22;86.72;97647.54;106735;1282;22550;-88
2023/01/13 00:32:07;;;;;;;23.00;20.70;;;;;;;3.27;86.50;97649.85;106796;1282;24215;-88
2023/01/13 00:34:37;;;;;;;25.50;23.00;;;;;;;3.31;86.68;97647.68;106955;1282;22551;-87
2023/01/13 00:37:07;;;;;;;27.00;24.50;;;;;;;3.32;86.41;97647.11;106953;1283;26620;-88
2023/01/13 00:39:35;;;;;;;25.20;22.90;;;;;;;3.35;86.69;97641.80;107000;1282;24270;-89
2023/01/13 00:44:53;;;;;;;22.20;20.20;;;;;;;3.39;85.89;97650.30;106704;1283;25364;-87
2023/01/13 00:47:22;;;;;;;25.00;22.40;;;;;;;3.36;86.15;97657.94;106860;1271;23997;-86
2023/01/13 00:49:50;;;;;;;26.20;23.70;;;;;;;3.31;86.32;97660.15;106716;1282;22559;-86
2023/01/13 00:52:22;;;;;;;33.30;30.40;;;;;;;3.29;86.53;97663.23;106626;1282;24215;-86
2023/01/13 00:54:50;;;;;;;26.30;24.00;;;;;;;3.28;86.59;97664.34;106724;1283;22498;-87
2023/01/13 00:57:18;;;;;;;29.50;26.70;;;;;;;3.25;86.74;97664.48;106718;1283;22542;-86
2023/01/13 00:59:47;;;;;;;28.80;26.20;;;;;;;3.28;86.80;97658.91;106660;1282;23293;-88
2023/01/13 01:02:20;;;;;;;22.20;20.10;;;;;;;3.31;86.53;97656.05;106763;1282;22569;-88
2023/01/13 01:04:48;;;;;;;23.30;21.10;;;;;;;3.25;86.65;97651.38;107032;1283;22583;-88
2023/01/13 01:07:16;;;;;;;28.80;26.10;;;;;;;3.22;86.89;97649.39;107999;1283;22637;-89
2023/01/13 01:09:44;;;;;;;30.20;27.50;;;;;;;3.23;87.08;97642.95;106928;1280;22478;-86
2023/01/13 01:12:13;;;;;;;28.50;25.70;;;;;;;3.24;86.93;97642.84;106865;1283;23333;-86
2023/01/13 01:14:41;;;;;;;23.00;20.80;;;;;;;3.27;87.10;97641.21;106857;1283;25271;-83
2023/01/13 01:17:09;;;;;;;22.40;18.90;;;;;;;3.33;86.88;97640.83;107207;1283;22498;-85
2023/01/13 01:19:38;;;;;;;20.50;18.70;;;;;;;3.40;87.48;97634.73;107058;1281;22675;-87
2023/01/13 01:22:06;;;;;;;23.50;21.50;;;;;;;3.46;87.50;97631.53;107210;1283;22544;-88
2023/01/13 01:24:37;;;;;;;21.50;19.70;;;;;;;3.49;87.40;97632.38;106840;1283;25318;-88
2023/01/13 01:27:06;;;;;;;26.50;24.40;;;;;;;3.51;87.61;97626.48;107065;1283;23956;-88
2023/01/13 01:29:38;;;;;;;21.40;19.50;;;;;;;3.53;87.44;97621.70;106940;1283;22686;-88
2023/01/13 01:32:07;;;;;;;25.30;22.90;;;;;;;3.57;87.53;97622.40;106994;1282;23937;-86
2023/01/13 01:34:35;;;;;;;23.60;21.50;;;;;;;3.62;87.73;97624.35;107130;1283;24290;-87
2023/01/13 01:37:07;;;;;;;18.80;17.00;;;;;;;3.68;87.50;97620.27;106825;1277;22658;-87
2023/01/13 01:39:40;;;;;;;19.60;17.70;;;;;;;3.71;87.61;97612.50;106942;1259;24215;-88
2023/01/13 01:45:23;;;;;;;20.70;18.70;;;;;;;3.67;87.93;97604.07;106661;1283;22664;-89
2023/01/13 01:48:00;;;;;;;17.90;16.20;;;;;;;3.67;87.75;97602.88;106867;1283;22630;-87
2023/01/13 01:51:20;;;;;;;17.50;15.80;;;;;;;3.69;87.88;97598.52;106803;1282;24354;-87
2023/01/13 01:53:49;;;;;;;16.80;15.20;;;;;;;3.72;87.63;97594.17;106937;1282;22610;-87
2023/01/13 01:56:20;;;;;;;16.80;15.30;;;;;;;3.74;88.21;97588.16;106871;1281;22544;-88
2023/01/13 01:58:53;;;;;;;15.80;14.20;;;;;;;3.74;87.59;97587.25;106945;1282;22597;-87
2023/01/13 02:01:21;;;;;;;16.60;15.10;;;;;;;3.72;87.94;97580.74;106860;1282;22693;-89
2023/01/13 02:04:09;;;;;;;18.50;16.90;;;;;;;3.69;88.11;97580.83;107199;1283;24363;-90
2023/01/13 02:06:38;;;;;;;22.90;21.10;;;;;;;3.67;88.11;97582.73;107719;1282;25330;-90
2023/01/13 02:09:07;;;;;;;21.60;19.70;;;;;;;3.66;88.07;97581.94;107970;1282;22569;-90
2023/01/13 02:14:28;;;;;;;18.10;16.50;;;;;;;3.67;87.89;97586.47;107532;1282;23738;-88
2023/01/13 02:17:31;;;;;;;16.30;14.70;;;;;;;3.69;88.44;97582.06;107958;1282;23916;-88
2023/01/13 02:20:33;;;;;;;18.10;16.60;;;;;;;3.67;88.30;97582.22;107114;1283;23472;-88
2023/01/13 02:27:03;;;;;;;22.70;20.80;;;;;;;3.50;88.63;97574.05;107483;1283;22540;-90
2023/01/13 02:32:59;;;;;;;14.10;12.80;;;;;;;3.46;88.59;97563.76;107225;1281;22560;-89
2023/01/13 02:35:47;;;;;;;13.00;11.80;;;;;;;3.47;88.39;97561.59;107448;1281;23016;-90
2023/01/13 02:38:23;;;;;;;13.00;11.80;;;;;;;3.48;88.47;97560.36;107306;1283;22572;-90
2023/01/13 02:44:05;;;;;;;13.20;12.00;;;;;;;3.49;88.69;97560.09;106875;1282;22632;-89
2023/01/13 02:44:06;;;;;;;14.20;13.00;;;;;;;3.47;88.57;97558.86;107521;1282;23257;-88
2023/01/13 02:47:09;;;;;;;15.80;14.30;;;;;;;3.42;88.50;97557.34;107080;1282;23788;-86
2023/01/13 02:49:49;;;;;;;15.20;13.50;;;;;;;3.34;88.43;97552.20;107056;1283;24184;-87
2023/01/13 02:52:26;;;;;;;17.70;16.00;;;;;;;3.34;88.58;97543.67;107027;1282;23851;-87
2023/01/13 02:55:04;;;;;;;13.80;12.40;;;;;;;3.37;88.86;97541.77;107042;1282;23345;-87
2023/01/13 02:57:35;;;;;;;13.70;12.20;;;;;;;3.41;88.67;97541.05;106707;1283;25440;-88
2023/01/13 03:00:32;;;;;;;13.50;11.70;;;;;;;3.44;89.03;97539.41;106844;1283;22548;-87
2023/01/13 03:03:02;;;;;;;10.60;9.40;;;;;;;3.42;88.84;97533.52;107609;1282;24051;-87
2023/01/13 03:05:32;;;;;;;12.20;11.10;;;;;;;3.40;89.04;97534.22;106954;1283;26572;-86
2023/01/13 03:08:38;;;;;;;11.20;10.10;;;;;;;3.41;89.30;97534.77;106908;1283;24270;-87
2023/01/13 03:11:13;;;;;;;10.00;9.00;;;;;;;3.46;89.21;97534.02;107331;1282;24092;-89
2023/01/13 03:13:44;;;;;;;8.90;8.00;;;;;;;3.50;88.78;97535.80;107178;1283;22534;-89
2023/01/13 03:16:32;;;;;;;9.50;8.50;;;;;;;3.51;89.17;97533.68;107479;1283;22543;-88
2023/01/13 03:19:25;;;;;;;13.00;11.80;;;;;;;3.52;89.39;97534.52;107176;1283;22543;-88
2023/01/13 03:22:16;;;;;;;10.00;9.00;;;;;;;3.52;89.48;97535.91;106735;1283;25556;-88
2023/01/13 03:25:21;;;;;;;9.30;7.80;;;;;;;3.56;89.37;97532.20;106757;1283;22611;-88
2023/01/13 03:27:56;;;;;;;10.40;7.70;;;;;;;3.63;89.44;97525.51;106775;1283;24261;-88
2023/01/13 03:30:41;;;;;;;10.60;9.30;;;;;;;3.69;89.61;97520.23;106717;1283;22678;-85
2023/01/13 03:33:26;;;;;;;13.60;12.20;;;;;;;3.74;89.68;97515.83;106644;1283;25495;-87
2023/01/13 03:35:59;;;;;;;21.00;19.00;;;;;;;3.78;89.91;97519.02;106582;1281;22538;-86
2023/01/13 03:38:29;;;;;;;23.00;20.90;;;;;;;3.82;89.98;97517.98;106596;1283;22551;-88
2023/01/13 03:41:03;;;;;;;22.60;20.50;;;;;;;3.88;90.00;97520.54;106769;1283;22585;-90
2023/01/13 03:46:36;;;;;;;12.00;10.90;;;;;;;4.03;90.13;97516.84;106661;1282;22741;-90
2023/01/13 03:49:07;;;;;;;12.40;11.20;;;;;;;4.06;89.92;97520.36;106731;1283;22668;-88
2023/01/13 03:51:39;;;;;;;12.20;11.00;;;;;;;4.05;89.89;97515.02;108111;1283;22537;-88
2023/01/13 03:54:12;;;;;;;11.70;10.60;;;;;;;4.06;90.20;97514.60;107124;1282;22549;-88
2023/01/13 04:01:04;;;;;;;13.30;11.90;;;;;;;4.09;89.86;97515.29;106705;1283;23297;-87
2023/01/13 04:03:35;;;;;;;15.10;13.50;;;;;;;4.12;89.93;97514.60;106526;1283;22553;-87
2023/01/13 04:06:24;;;;;;;14.70;13.10;;;;;;;4.15;89.92;97517.43;106543;1278;22584;-89
2023/01/13 04:09:01;;;;;;;13.70;11.20;;;;;;;4.19;90.05;97511.61;106863;1283;22597;-87
2023/01/13 04:11:39;;;;;;;10.70;9.60;;;;;;;4.23;90.05;97514.55;106648;1272;22692;-88
2023/01/13 04:14:10;;;;;;;11.20;9.80;;;;;;;4.24;90.28;97513.01;106617;1283;22673;-87
2023/01/13 04:16:40;;;;;;;11.40;9.10;;;;;;;4.23;90.29;97509.80;106636;1283;23232;-87
2023/01/13 04:19:08;;;;;;;8.80;8.00;;;;;;;4.24;90.31;97511.66;106819;1283;23910;-87
2023/01/13 04:21:35;;;;;;;12.70;11.60;;;;;;;4.26;90.20;97517.44;106733;1283;24240;-87
2023/01/13 04:24:04;;;;;;;10.50;9.50;;;;;;;4.31;90.32;97518.45;106428;1283;24842;-86
2023/01/13 04:26:32;;;;;;;10.00;9.10;;;;;;;4.34;90.03;97516.46;106716;1283;23972;-88
2023/01/13 04:29:00;;;;;;;10.50;9.40;;;;;;;4.34;90.39;97522.02;106731;1283;24250;-86
2023/01/13 04:31:28;;;;;;;12.40;11.30;;;;;;;4.34;90.43;97519.40;106748;1283;23370;-87
2023/01/13 04:34:50;;;;;;;12.20;11.10;;;;;;;4.32;90.36;97518.39;106508;1282;22660;-86
2023/01/13 04:37:18;;;;;;;11.40;10.00;;;;;;;4.34;90.32;97519.84;106739;1283;22609;-88
2023/01/13 04:44:34;;;;;;;13.70;12.40;;;;;;;4.44;90.18;97526.12;106738;1282;25304;-89
2023/01/13 04:47:02;;;;;;;22.80;20.80;;;;;;;4.46;90.40;97526.38;106779;1283;22568;-88
2023/01/13 04:49:30;;;;;;;15.30;13.90;;;;;;;4.48;90.53;97522.23;107271;1283;22536;-87
2023/01/13 04:51:58;;;;;;;12.50;11.00;;;;;;;4.49;90.50;97522.21;106758;1283;23926;-88
2023/01/13 04:54:26;;;;;;;10.50;9.50;;;;;;;4.52;90.40;97520.83;106765;1282;22574;-88
2023/01/13 04:56:54;;;;;;;11.40;8.80;;;;;;;4.56;90.52;97515.38;106540;1283;22536;-87
2023/01/13 04:59:22;;;;;;;10.60;9.60;;;;;;;4.60;90.21;97514.09;106566;1283;24242;-88
2023/01/13 05:01:50;;;;;;;9.90;9.00;;;;;;;4.63;90.46;97517.61;106778;1283;24276;-88
2023/01/13 05:04:19;;;;;;;8.90;7.80;;;;;;;4.65;90.45;97526.48;106753;1283;25496;-88
2023/01/13 05:06:47;;;;;;;7.90;7.10;;;;;;;4.66;90.47;97524.17;106733;1283;22790;-88
2023/01/13 05:09:15;;;;;;;10.80;7.60;;;;;;;4.68;90.41;97527.70;106537;1283;22658;-87
2023/01/13 05:17:23;;;;;;;8.80;7.80;;;;;;;4.81;90.54;97524.67;106641;1282;22540;-88
2023/01/13 05:19:51;;;;;;;10.20;8.00;;;;;;;4.82;90.43;97513.52;106699;1283;23917;-87
2023/01/13 05:25:20;;;;;;;9.40;8.50;;;;;;;4.83;90.70;97523.45;106780;1282;24305;-87
2023/01/13 05:27:49;;;;;;;9.10;7.80;;;;;;;4.85;90.54;97520.87;106641;1283;24753;-87
2023/01/13 05:30:20;;;;;;;7.40;6.60;;;;;;;4.87;90.40;97527.61;106686;1283;22649;-88
2023/01/13 05:32:48;;;;;;;10.10;7.90;;;;;;;4.91;90.34;97523.52;109654;1282;23516;-86
2023/01/13 05:35:17;;;;;;;11.10;9.50;;;;;;;4.95;90.52;97526.56;109826;1283;22392;-85
2023/01/13 05:37:45;;;;;;;17.80;16.20;;;;;;;4.99;90.62;97528.11;109911;1283;22421;-85
2023/01/13 05:43:32;;;;;;;19.00;17.30;;;;;;;5.05;90.57;97532.25;109912;1283;22556;-84
2023/01/13 05:46:06;;;;;;;19.70;18.10;;;;;;;5.11;90.55;97530.80;108229;1283;22578;-86
2023/01/13 05:48:37;;;;;;;18.70;16.90;;;;;;;5.16;90.35;97528.70;108363;1264;25433;-84
2023/01/13 05:51:08;;;;;;;16.70;15.20;;;;;;;5.24;90.40;97525.73;106758;1264;22579;-85
2023/01/13 05:58:25;;;;;;;24.80;22.60;;;;;;;5.28;90.40;97519.52;106870;1283;22532;-85
2023/01/13 06:01:04;;;;;;;28.30;25.60;;;;;;;5.26;90.38;97522.47;106568;1283;22593;-85
2023/01/13 06:03:33;;;;;;;18.80;17.20;;;;;;;5.24;90.40;97526.86;106625;1283;22665;-86
2023/01/13 06:06:02;;;;;;;23.10;20.90;;;;;;;5.26;90.37;97524.17;106818;1283;25407;-86
2023/01/13 06:08:33;;;;;;;19.80;17.90;;;;;;;5.30;90.45;97526.67;106651;1281;22678;-85
2023/01/13 06:11:01;;;;;;;21.90;19.90;;;;;;;5.34;90.40;97524.67;106795;1283;22550;-84
2023/01/13 06:13:29;;;;;;;21.60;19.80;;;;;;;5.35;90.50;97523.70;106739;1281;22547;-85
2023/01/13 06:15:58;;;;;;;21.60;19.70;;;;;;;5.36;90.39;97527.98;106799;1283;22666;-85
2023/01/13 06:18:26;;;;;;;21.20;19.40;;;;;;;5.35;90.40;97528.98;106540;1283;22589;-85
2023/01/13 06:20:55;;;;;;;21.20;19.20;;;;;;;5.34;90.23;97530.55;106781;1283;23917;-85
2023/01/13 06:23:23;;;;;;;17.00;15.40;;;;;;;5.30;90.15;97528.86;106802;1283;22571;-84
2023/01/13 06:26:01;;;;;;;15.60;14.30;;;;;;;5.29;90.30;97530.35;106760;1283;22546;-84
2023/01/13 06:28:32;;;;;;;16.00;14.50;;;;;;;5.29;90.17;97534.56;106783;1283;22799;-85
2023/01/13 06:31:05;;;;;;;14.20;12.90;;;;;;;5.30;90.11;97532.39;106745;1283;23019;-85
2023/01/13 06:33:40;;;;;;;16.00;14.50;;;;;;;5.31;90.21;97537.67;106615;1283;24272;-85
2023/01/13 06:36:14;;;;;;;15.80;14.40;;;;;;;5.31;90.21;97540.29;106644;1283;25504;-86
2023/01/13 06:38:46;;;;;;;17.30;15.70;;;;;;;5.31;90.35;97540.13;106775;1283;24342;-85
2023/01/13 06:41:15;;;;;;;20.70;18.80;;;;;;;5.31;90.25;97537.30;106802;1281;22582;-85
2023/01/13 06:43:43;;;;;;;19.70;17.80;;;;;;;5.33;90.23;97533.17;106867;1283;23191;-85
2023/01/13 06:46:11;;;;;;;18.50;15.80;;;;;;;5.36;90.08;97539.73;106825;1283;22670;-85
2023/01/13 06:48:39;;;;;;;15.80;14.30;;;;;;;5.39;90.01;97536.84;106777;1283;22571;-85
2023/01/13 06:51:07;;;;;;;16.90;15.30;;;;;;;5.42;90.29;97537.53;106734;1283;22900;-86
2023/01/13 06:53:35;;;;;;;14.50;13.00;;;;;;;5.42;90.27;97544.05;106621;1283;22780;-88
2023/01/13 06:56:03;;;;;;;13.70;12.40;;;;;;;5.42;90.11;97542.92;106771;1283;24374;-84
2023/01/13 06:58:31;;;;;;;14.80;13.30;;;;;;;5.44;90.05;97539.54;106783;1283;25314;-85
2023/01/13 07:01:00;;;;;;;15.10;10.90;;;;;;;5.49;90.10;97541.98;106795;1283;24381;-83
2023/01/13 07:03:28;;;;;;;14.20;12.70;;;;;;;5.54;89.95;97538.16;106788;1283;23479;-88
2023/01/13 07:05:56;;;;;;;15.40;14.00;;;;;;;5.58;90.06;97539.75;106714;1283;22811;-85
2023/01/13 07:08:24;;;;;;;14.40;13.00;;;;;;;5.59;89.94;97538.30;106740;1280;22547;-85
2023/01/13 07:10:53;;;;;;;13.80;12.50;;;;;;;5.60;89.97;97535.77;106759;1283;22575;-85
2023/01/13 07:16:08;;;;;;;16.90;15.20;;;;;;;5.66;89.90;97541.80;106603;1283;22578;-84
2023/01/13 07:18:37;;;;;;;15.90;14.30;;;;;;;5.69;89.85;97538.25;106764;1283;22552;-85
2023/01/13 07:21:08;;;;;;;17.50;14.80;;;;;;;5.75;89.86;97539.61;106640;1283;25491;-85
2023/01/13 07:23:40;;;;;;;21.80;19.60;;;;;;;5.80;89.75;97536.86;106553;1283;24312;-85
2023/01/13 07:26:09;;;;;;;16.80;14.40;;;;;;;5.83;89.73;97538.71;106632;1283;23777;-86
2023/01/13 07:28:40;;;;;;;18.80;17.10;;;;;;;5.83;89.65;97534.59;106738;1283;24379;-85
2023/01/13 07:31:17;;;;;;;14.70;13.30;;;;;;;5.84;89.51;97535.98;107006;1282;22566;-84
2023/01/13 07:33:46;;;;;;;15.20;12.50;;;;;;;5.84;89.53;97538.21;106561;1282;22543;-85
2023/01/13 07:36:14;;;;;;;15.10;13.60;;;;;;;5.86;89.41;97536.11;106702;1283;22553;-85
2023/01/13 07:38:43;;;;;;;15.30;13.40;;;;;;;5.91;89.41;97534.44;106394;1283;161368;-85
2023/01/13 07:44:03;;;;;;;13.00;11.70;;;;;;;6.00;89.40;97534.90;108106;1283;22588;-85
2023/01/13 07:46:32;;;;;;;14.30;13.00;;;;;;;6.02;89.39;97527.38;106812;1283;26159;-85
2023/01/13 07:49:00;;;;;;;19.10;17.10;;;;;;;6.02;89.20;97526.64;106593;1283;23940;-85
2023/01/13 07:51:28;;;;;;;16.10;14.50;;;;;;;6.01;89.05;97524.24;106581;1283;22564;-86
2023/01/13 07:53:57;;;;;;;14.70;12.80;;;;;;;6.01;89.06;97530.72;106769;1283;22603;-85
2023/01/13 07:56:25;;;;;;;14.40;11.90;;;;;;;6.03;89.05;97526.64;106740;1283;22579;-85
2023/01/13 07:58:53;;;;;;;15.50;12.30;;;;;;;6.07;88.96;97526.02;107080;1279;22798;-85
2023/01/13 08:01:21;;;;;;;14.90;13.40;;;;;;;6.13;88.76;97523.67;106651;1283;25255;-86
2023/01/13 08:03:49;;;;;;;15.50;12.90;;;;;;;6.16;88.84;97525.90;106784;1283;22570;-87
2023/01/13 08:06:17;;;;;;;16.10;14.20;;;;;;;6.19;88.55;97520.10;106601;1283;23916;-86
2023/01/13 08:08:45;;;;;;;14.10;12.00;;;;;;;6.21;88.45;97519.77;106783;1270;24373;-86
2023/01/13 08:11:13;;;;;;;13.40;12.10;;;;;;;6.22;88.28;97520.36;106804;1283;24209;-86
2023/01/13 08:13:42;;;;;;;13.10;11.40;;;;;;;6.22;87.59;97523.13;106746;1283;24418;-89
2023/01/13 08:16:13;;;;;;;10.20;9.20;;;;;;;6.23;87.45;97514.77;106725;1262;23980;-90
2023/01/13 08:18:42;;;;;;;11.20;9.40;;;;;;;6.32;87.57;97520.21;106705;1283;22826;-92
2023/01/13 08:21:14;;;;;;;10.00;9.00;;;;;;;6.36;87.71;97514.40;106899;1283;24259;-92
2023/01/13 08:23:44;;;;;;;9.80;8.70;;;;;;;6.41;87.01;97510.66;106935;1283;25447;-91
2023/01/13 08:26:16;;;;;;;13.40;10.80;;;;;;;6.44;87.17;97512.46;106598;1270;25934;-93
2023/01/13 08:28:44;;;;;;;12.80;11.50;;;;;;;6.45;86.90;97509.30;106936;1281;22610;-92
2023/01/13 08:31:18;;;;;;;14.50;13.10;;;;;;;6.50;86.52;97515.56;107068;1283;25441;-90
2023/01/13 08:33:47;;;;;;;14.50;12.90;;;;;;;6.53;86.66;97516.55;107527;1283;25569;-89
2023/01/13 08:36:17;;;;;;;11.70;10.40;;;;;;;6.58;86.52;97516.14;108837;1283;22968;-86
2023/01/13 08:38:45;;;;;;;10.80;9.70;;;;;;;6.66;86.78;97509.96;107334;1283;24215;-88
2023/01/13 08:41:53;;;;;;;12.20;10.50;;;;;;;6.72;86.67;97514.02;107155;1271;22621;-85
2023/01/13 08:44:08;;;;;;;12.50;9.30;;;;;;;6.78;86.78;97518.14;107206;1279;22573;-86
2023/01/13 08:46:36;;;;;;;11.40;9.50;;;;;;;6.82;86.48;97522.48;106900;1282;25272;-85
2023/01/13 08:49:04;;;;;;;12.00;10.10;;;;;;;6.88;86.62;97523.07;106909;1283;27906;-86
2023/01/13 08:51:33;;;;;;;13.40;9.80;;;;;;;6.92;86.02;97526.15;106833;1283;24253;-86
2023/01/13 08:54:02;;;;;;;12.00;9.40;;;;;;;6.96;85.90;97530.65;107053;1279;24272;-89
2023/01/13 08:56:30;;;;;;;14.10;9.10;;;;;;;7.03;85.72;97533.21;106897;1283;24323;-87
2023/01/13 08:59:02;;;;;;;9.90;8.70;;;;;;;7.10;85.88;97533.56;107040;1283;22626;-90
2023/01/13 09:01:30;;;;;;;11.30;8.10;;;;;;;7.16;85.75;97541.00;107343;1282;22688;-90
2023/01/13 09:03:59;;;;;;;10.60;9.10;;;;;;;7.19;85.15;97543.10;106933;1282;24281;-91
2023/01/13 09:06:27;;;;;;;11.60;10.40;;;;;;;7.21;85.47;97541.85;107095;1282;26611;-91
2023/01/13 09:08:55;;;;;;;13.10;10.80;;;;;;;7.16;85.75;97526.63;108698;1282;22650;-90
2023/01/13 09:14:22;;;;;;;;;;;;;;;7.33;85.00;97538.71;107232;1282;22562;-92
2023/01/13 09:16:50;;;;;;;26.60;21.70;;;;;;;7.35;85.19;97537.02;106893;1283;22553;-92
2023/01/13 09:19:18;;;;;;;18.50;16.30;;;;;;;7.41;85.30;97538.04;106968;1283;22792;-93
2023/01/13 09:21:46;;;;;;;18.50;16.20;;;;;;;7.49;85.36;97539.55;107228;1281;25896;-93
2023/01/13 09:24:14;;;;;;;27.20;23.60;;;;;;;7.59;84.62;97538.51;107499;1281;22947;-91
2023/01/13 09:26:42;;;;;;;32.30;26.70;;;;;;;7.66;84.80;97535.36;107320;1281;22544;-92
2023/01/13 09:29:11;;;;;;;28.00;20.40;;;;;;;7.72;84.38;97527.98;107054;1281;22538;-91
2023/01/13 09:36:02;;;;;;;16.70;12.60;;;;;;;7.85;82.68;97522.44;107853;1281;23122;-89
2023/01/13 09:38:30;;;;;;;11.00;9.60;;;;;;;7.87;80.69;97518.64;109545;1281;23077;-91
2023/01/13 09:40:58;;;;;;;13.70;12.20;;;;;;;7.86;80.54;97517.86;107762;1281;22615;-91
2023/01/13 09:43:54;;;;;;;10.80;9.60;;;;;;;7.83;80.70;97519.25;107609;1281;24291;-92
2023/01/13 09:46:45;;;;;;;13.40;9.60;;;;;;;7.83;80.01;97517.05;107432;1281;22538;-91
2023/01/13 09:49:34;;;;;;;12.60;8.80;;;;;;;7.84;80.32;97518.48;107226;1281;22538;-91
2023/01/13 09:52:13;;;;;;;13.60;11.10;;;;;;;7.89;80.56;97510.04;107257;1281;25419;-92
2023/01/13 09:54:47;;;;;;;12.10;10.60;;;;;;;7.91;79.44;97508.35;107017;1281;22577;-91
2023/01/13 09:57:17;;;;;;;15.80;12.00;;;;;;;7.91;79.07;97505.61;107323;1282;25441;-93
2023/01/13 09:59:46;;;;;;;15.50;11.70;;;;;;;7.91;78.41;97503.73;107864;1282;22585;-93
2023/01/13 10:02:42;;;;;;;11.40;9.90;;;;;;;7.91;78.28;97501.90;108193;1282;22567;-91
2023/01/13 10:05:43;;;;;;;14.00;11.90;;;;;;;7.92;77.74;97503.67;107971;1279;22531;-92
2023/01/13 10:08:31;;;;;;;16.60;14.90;;;;;;;7.94;77.19;97502.36;107675;1281;22545;-93
2023/01/13 10:13:13;;;;;;;16.20;11.30;;;;;;;7.97;77.38;97500.15;107327;1281;25547;-91
2023/01/13 10:13:57;;;;;;;16.20;14.20;;;;;;;8.07;77.38;97502.59;107377;1281;23356;-93
2023/01/13 10:16:30;;;;;;;;;;;;;;;8.17;77.08;97494.48;107220;1278;25399;-90
2023/01/13 10:19:24;;;;;;;13.10;10.20;;;;;;;8.27;75.85;97497.98;107380;1281;22504;-90
2023/01/13 10:22:14;;;;;;;18.50;16.70;;;;;;;8.35;75.97;97494.73;107118;1282;22660;-89
2023/01/13 10:24:55;;;;;;;13.10;11.80;;;;;;;8.45;74.19;97492.13;107346;1283;22764;-89
2023/01/13 10:27:37;;;;;;;13.80;12.50;;;;;;;8.50;74.25;97494.26;107464;1283;24320;-90
2023/01/13 10:30:38;;;;;;;11.90;9.00;;;;;;;8.53;73.93;97489.70;107068;1277;22672;-88
2023/01/13 10:33:11;;;;;;;11.60;10.30;;;;;;;8.55;73.86;97488.03;106934;1283;22623;-88
2023/01/13 10:35:49;;;;;;;12.00;8.90;;;;;;;8.56;72.89;97481.67;106887;1282;25361;-88
2023/01/13 10:38:23;;;;;;;11.50;6.90;;;;;;;8.58;72.54;97476.23;106772;1282;22539;-88
2023/01/13 10:40:59;;;;;;;9.70;8.20;;;;;;;8.59;72.90;97473.15;106826;1282;22636;-90
2023/01/13 10:43:28;;;;;;;9.60;7.60;;;;;;;8.61;72.74;97470.80;106942;1282;23838;-87
2023/01/13 10:46:03;;;;;;;11.40;7.70;;;;;;;8.63;73.85;97467.26;106847;1282;24373;-88
2023/01/13 10:48:39;;;;;;;8.60;6.50;;;;;;;8.68;73.55;97462.36;106923;1282;22594;-87
2023/01/13 10:51:18;;;;;;;10.00;7.90;;;;;;;8.72;72.79;97461.27;106831;1283;23164;-88
2023/01/13 10:54:01;;;;;;;7.40;6.40;;;;;;;8.76;73.46;97462.64;107224;1283;22690;-89
2023/01/13 10:56:32;;;;;;;9.80;8.70;;;;;;;8.78;73.44;97460.77;107277;1281;22649;-90
2023/01/13 10:59:23;;;;;;;10.10;7.60;;;;;;;8.77;72.35;97460.90;107264;1282;22650;-90
2023/01/13 11:01:57;;;;;;;10.40;8.10;;;;;;;8.73;72.40;97455.92;106960;1282;23002;-90
2023/01/13 11:04:29;;;;;;;9.80;8.50;;;;;;;8.71;72.11;97452.58;107287;1282;25361;-92
2023/01/13 11:06:59;;;;;;;11.10;7.50;;;;;;;8.71;72.27;97450.05;107387;1283;25437;-91
2023/01/13 11:09:29;;;;;;;11.90;10.00;;;;;;;8.72;72.26;97446.59;109166;1283;22560;-92
2023/01/13 11:11:59;;;;;;;10.20;7.00;;;;;;;8.75;72.31;97445.58;109218;1282;22726;-88
2023/01/13 11:14:45;;;;;;;18.10;11.80;;;;;;;8.77;72.60;97449.46;110088;1255;22246;-87
2023/01/13 11:17:45;;;;;;;10.00;8.20;;;;;;;8.81;71.77;97444.38;110299;1257;22353;31
2023/01/13 11:20:32;;;;;;;12.50;8.80;;;;;;;8.85;71.48;97445.00;110188;1251;22430;31
2023/01/13 11:26:25;;;;;;;9.50;7.20;;;;;;;8.93;70.93;97438.67;101120;1256;23021;-87
2023/01/13 11:32:16;;;;;;;24.40;14.40;;;;;;;9.00;70.73;97431.38;109987;1257;22559;-89
2023/01/13 11:34:53;;;;;;;17.30;15.10;;;;;;;9.04;70.85;97433.88;110213;1258;22348;-90
2023/01/13 11:37:36;;;;;;;29.30;23.40;;;;;;;9.07;70.36;97431.94;109956;1258;24126;31
2023/01/13 11:45:52;;;;;;;12.40;10.20;;;;;;;9.11;69.14;97435.36;109427;1261;24219;-93
2023/01/13 11:48:27;;;;;;;9.20;7.20;;;;;;;9.08;69.22;97433.70;109046;1282;23410;-93
2023/01/13 11:51:10;;;;;;;15.20;12.30;;;;;;;9.06;69.63;97438.79;108686;1281;22584;-93
2023/01/13 11:54:07;;;;;;;14.50;12.80;;;;;;;9.06;69.82;97435.56;108534;1281;24404;-93
2023/01/13 11:56:54;;;;;;;14.40;12.50;;;;;;;9.05;69.01;97437.92;108071;1281;22562;-93
2023/01/13 11:59:49;;;;;;;14.70;13.20;;;;;;;9.02;69.87;97432.09;107554;1281;22508;-94
2023/01/13 12:02:59;;;;;;;17.40;12.10;;;;;;;9.03;70.08;97433.31;107868;1277;22559;-91
2023/01/13 12:05:43;;;;;;;26.70;23.70;;;;;;;9.04;70.50;97429.32;108312;1281;24139;-93
2023/01/13 12:08:17;;;;;;;23.10;20.70;;;;;;;9.05;69.73;97426.98;107812;1282;22660;-92
2023/01/13 12:10:53;;;;;;;18.90;16.90;;;;;;;9.04;69.95;97426.84;107546;1282;22507;-93
2023/01/13 12:13:33;;;;;;;26.90;24.40;;;;;;;9.03;69.38;97432.81;107332;1283;25984;-94
2023/01/13 12:16:08;;;;;;;13.10;11.40;;;;;;;9.00;69.17;97427.88;107552;1275;22588;-94
2023/01/13 12:18:46;;;;;;;14.10;11.50;;;;;;;8.99;69.11;97428.78;107617;1283;22546;-94
2023/01/13 12:21:22;;;;;;;10.20;7.30;;;;;;;8.96;68.92;97427.58;108420;1275;22652;-92
2023/01/13 12:24:36;;;;;;;12.90;9.10;;;;;;;8.92;69.29;97418.96;108944;1283;22577;-92
2023/01/13 12:27:12;;;;;;;9.90;8.20;;;;;;;8.92;69.01;97411.34;108332;1283;22544;-90
2023/01/13 12:29:43;;;;;;;16.20;9.60;;;;;;;8.91;68.99;97407.64;108143;1282;22748;-93
2023/01/13 12:32:20;;;;;;;11.40;8.90;;;;;;;8.91;69.09;97404.53;108745;1283;22664;-93
2023/01/13 12:35:13;;;;;;;11.10;9.90;;;;;;;8.91;69.14;97398.68;108865;1282;22607;-93
2023/01/13 12:37:47;;;;;;;14.80;12.40;;;;;;;8.91;69.39;97397.96;108904;1283;22834;-93
2023/01/13 12:46:20;;;;;;;12.70;10.60;;;;;;;9.01;70.47;97408.09;108821;1283;25461;-89
2023/01/13 12:48:55;;;;;;;11.90;9.90;;;;;;;9.00;70.18;97413.90;107550;1283;22747;-92
2023/01/13 12:51:28;;;;;;;12.70;10.80;;;;;;;8.99;69.49;97414.75;108116;1283;26654;-92
2023/01/13 12:53:56;;;;;;;16.50;13.80;;;;;;;8.95;69.18;97421.44;108236;1283;23759;-91
2023/01/13 12:56:41;;;;;;;14.80;12.10;;;;;;;8.91;69.43;97418.86;108470;1283;23765;-92
2023/01/13 12:59:18;;;;;;;12.20;9.90;;;;;;;8.91;68.94;97422.38;108630;1283;22640;-94
2023/01/13 13:01:49;;;;;;;11.70;10.20;;;;;;;8.88;69.55;97420.96;108352;1277;22533;-92
2023/01/13 13:04:20;;;;;;;18.30;14.00;;;;;;;8.88;69.51;97420.76;107324;1283;24695;-94
2023/01/13 13:07:17;;;;;;;18.90;13.50;;;;;;;8.87;69.62;97427.98;107270;1283;22574;-92
2023/01/13 13:10:01;;;;;;;12.40;10.80;;;;;;;8.83;69.10;97424.72;107379;1283;22671;-92
2023/01/13 13:15:32;;;;;;;20.70;18.50;;;;;;;8.74;69.58;97433.33;107762;1282;24343;-93